最新機場天氣報告 (METAR)

METAR VMMC 211430Z 11012KT 9999 -SHRA FEW012 SCT028 24/23 Q1011 NOSIG=

機場天氣報告電碼經解碼後
報告內容 編碼 意義
報告種類之識別 METAR 機場天氣報告
機場代碼 VMMC 中國澳門
觀察時間 211430Z 21/05/2019 14:30:00 國際時
地面風方向及風速 11012KT 平均風向 110 度, 風速 12 海里
能見度 9999 10公里或以上
現時天氣狀況 -SHRA 輕度驟雨
FEW012 SCT028 雲量 1-2份; 雲底 1200 呎
雲量 3-4份; 雲底 2800 呎
空氣溫度和露點溫度 24/23 氣溫攝氏 24 度
露點溫度攝氏 23 度
氣壓 (QNH) Q1011 1011 百帕斯卡
未來兩小時之天氣趨勢變化 NOSIG 沒有顯著變化

其他國際機場:
天氣預報 (TAF)   天氣報告 (METAR)